createdAt,value
2022-10-30T09:06:17.311Z,11.70
2022-10-30T09:12:13.051Z,11.70
2022-10-30T09:14:39.883Z,11.80
2022-10-30T09:17:06.904Z,11.70
2022-10-30T09:19:33.768Z,11.80
2022-10-30T09:22:00.682Z,11.80
2022-10-30T09:24:27.579Z,11.70
2022-10-30T09:26:55.181Z,11.90
2022-10-30T09:29:22.165Z,11.70
2022-10-30T09:31:48.977Z,11.80
2022-10-30T09:34:15.992Z,12.00
2022-10-30T09:36:44.117Z,11.90
2022-10-30T09:39:11.374Z,12.20
2022-10-30T09:41:50.138Z,12.40
2022-10-30T09:44:37.767Z,12.20
2022-10-30T09:47:27.070Z,12.40
2022-10-30T09:49:56.902Z,12.50
2022-10-30T09:52:47.145Z,12.60
2022-10-30T09:55:26.226Z,12.80
2022-10-30T09:58:08.392Z,12.80
2022-10-30T10:00:39.235Z,12.90
2022-10-30T10:03:15.946Z,13.10
2022-10-30T10:05:42.872Z,13.10
2022-10-30T10:08:48.049Z,13.20
2022-10-30T10:11:17.002Z,13.50
2022-10-30T10:13:43.805Z,13.40
2022-10-30T10:16:18.160Z,13.50
2022-10-30T10:18:45.867Z,13.60
2022-10-30T10:21:21.498Z,13.70
2022-10-30T10:23:49.002Z,13.70
2022-10-30T10:26:22.813Z,13.60
2022-10-30T10:28:57.414Z,13.70
2022-10-30T10:31:39.517Z,13.70
2022-10-30T10:34:06.290Z,13.60
2022-10-30T10:36:39.171Z,13.70
2022-10-30T10:39:24.509Z,13.80
2022-10-30T10:41:59.264Z,14.00
2022-10-30T10:44:38.334Z,14.20
2022-10-30T10:47:10.936Z,14.00
2022-10-30T10:49:56.520Z,14.10
2022-10-30T10:52:24.453Z,14.20
2022-10-30T10:54:57.462Z,14.50
2022-10-30T10:57:32.794Z,14.50
2022-10-30T11:00:03.740Z,14.60
2022-10-30T11:02:30.600Z,14.60
2022-10-30T11:05:00.222Z,14.40
2022-10-30T11:07:28.874Z,14.10
2022-10-30T11:09:56.075Z,14.40
2022-10-30T11:12:30.822Z,14.20
2022-10-30T11:15:02.089Z,14.50
2022-10-30T11:17:32.309Z,14.60
2022-10-30T11:20:00.983Z,14.70
2022-10-30T11:22:29.775Z,14.60
2022-10-30T11:24:56.585Z,14.70
2022-10-30T11:27:23.370Z,14.80
2022-10-30T11:29:59.948Z,14.90
2022-10-30T11:32:28.078Z,15.10
2022-10-30T11:35:01.099Z,15.10
2022-10-30T11:37:34.890Z,15.30
2022-10-30T11:40:02.457Z,15.50
2022-10-30T11:42:29.258Z,15.40
2022-10-30T11:44:56.048Z,15.50
2022-10-30T11:47:24.960Z,15.60
2022-10-30T11:49:54.903Z,15.60
2022-10-30T11:52:22.277Z,15.90
2022-10-30T11:54:50.376Z,16.00
2022-10-30T11:57:37.467Z,16.20
2022-10-30T12:00:23.271Z,16.40
2022-10-30T12:02:53.681Z,16.50
2022-10-30T12:05:45.162Z,16.60
2022-10-30T12:08:17.479Z,16.80
2022-10-30T12:10:45.803Z,16.80
2022-10-30T12:13:14.240Z,16.80
2022-10-30T12:15:41.358Z,16.60
2022-10-30T12:18:08.870Z,16.50
2022-10-30T12:20:39.117Z,16.80
2022-10-30T12:23:22.376Z,16.80
2022-10-30T12:25:49.721Z,16.60
2022-10-30T12:28:17.668Z,16.60
2022-10-30T12:30:55.152Z,16.60
2022-10-30T12:33:29.655Z,16.60
2022-10-30T12:35:57.192Z,16.80
2022-10-30T12:38:33.194Z,17.00
2022-10-30T12:41:09.065Z,17.20
2022-10-30T12:43:36.684Z,17.30
2022-10-30T12:46:10.564Z,16.70
2022-10-30T12:48:38.711Z,16.00
2022-10-30T12:51:21.220Z,15.30
2022-10-30T12:54:01.169Z,14.80
2022-10-30T12:56:32.997Z,14.60
2022-10-30T12:59:08.952Z,14.40
2022-10-30T13:01:37.420Z,14.20
2022-10-30T13:04:07.516Z,14.00
2022-10-30T13:06:36.983Z,13.80
2022-10-30T13:09:07.163Z,13.80
2022-10-30T13:11:37.249Z,13.80
2022-10-30T13:14:04.111Z,13.90
2022-10-30T13:16:31.298Z,13.90
2022-10-30T13:18:59.764Z,13.90
2022-10-30T13:21:38.084Z,13.80
2022-10-30T13:24:11.811Z,13.70
2022-10-30T13:26:38.824Z,13.60
2022-10-30T13:29:05.709Z,13.60
2022-10-30T13:31:36.073Z,13.60
2022-10-30T13:34:22.086Z,13.40
2022-10-30T13:37:09.591Z,13.50
2022-10-30T13:39:45.720Z,13.30
2022-10-30T13:42:31.176Z,13.20
2022-10-30T13:45:07.249Z,13.20
2022-10-30T13:47:34.095Z,13.00
2022-10-30T13:50:19.503Z,13.00
2022-10-30T13:52:47.713Z,13.00
2022-10-30T13:55:30.267Z,12.90
2022-10-30T13:58:05.334Z,13.00
2022-10-30T14:00:35.199Z,12.90
2022-10-30T14:03:02.557Z,12.90
2022-10-30T14:05:39.652Z,13.00
2022-10-30T14:11:01.311Z,12.70
2022-10-30T14:13:29.061Z,12.60
2022-10-30T14:16:18.434Z,12.60
2022-10-30T14:18:45.417Z,12.60
2022-10-30T14:52:12.899Z,12.10
2022-10-30T15:00:42.757Z,11.80
2022-10-30T15:03:35.919Z,11.90
2022-10-30T15:06:10.925Z,11.90
2022-10-30T15:37:19.404Z,11.60
2022-10-30T17:23:22.062Z,11.50
2022-10-30T17:43:53.825Z,11.00
2022-10-30T17:46:20.970Z,11.00
2022-10-30T17:48:47.883Z,10.90
2022-10-30T17:51:16.282Z,10.90
2022-10-30T17:53:43.145Z,10.80
2022-10-30T17:56:17.224Z,10.80
2022-10-30T17:58:44.132Z,10.90
2022-10-30T18:01:13.630Z,9.00
2022-10-30T18:03:40.556Z,10.80
2022-10-30T18:06:09.287Z,10.70
2022-10-30T18:08:36.051Z,10.70
2022-10-30T18:11:02.915Z,10.70
2022-10-30T18:13:29.753Z,10.60
2022-10-30T18:15:57.711Z,10.70
2022-10-30T18:18:24.690Z,10.70
2022-10-30T18:20:51.526Z,10.60
2022-10-30T18:23:38.840Z,10.70
2022-10-30T18:26:06.532Z,10.80
2022-10-30T18:28:33.450Z,10.70
2022-10-30T18:31:01.412Z,10.70
2022-10-30T18:33:28.318Z,10.80
2022-10-30T18:49:12.173Z,11.10
2022-10-30T18:57:29.480Z,10.50
2022-10-30T19:52:31.591Z,10.40
2022-10-30T19:55:01.745Z,10.30
